Time;durP1;ratioP1;P1;durP2;ratioP2;P2;SDS_P1;SDS_P2;PMS_P1;PMS_P2;Temp;Humidity;BMP_temperature;BMP_pressure;BME280_temperature;BME280_humidity;BME280_pressure;Samples;Min_cycle;Max_cycle;Signal;HPM_P1;HPM_P2
2022/12/22 03:26:57;;;;;;;0.20;0.20;;;11.20;99.90;;;;;;5059896;28;20040;-83
2022/12/22 03:29:22;;;;;;;2.45;1.00;;;11.20;99.90;;;;;;5059353;28;20032;-84
2022/12/22 03:31:48;;;;;;;0.22;0.22;;;11.20;99.90;;;;;;5065363;28;20032;-82
2022/12/22 03:34:14;;;;;;;0.45;0.45;;;10.90;99.90;;;;;;5054499;28;20036;-84
2022/12/22 03:36:39;;;;;;;0.33;0.33;;;10.70;99.90;;;;;;5059816;28;20035;-85
2022/12/22 03:39:05;;;;;;;1.98;0.75;;;10.60;99.90;;;;;;5063320;28;20039;-83
2022/12/22 03:46:59;;;;;;;0.32;0.32;;;10.60;99.90;;;;;;5059845;28;20530;-85
2022/12/22 03:49:25;;;;;;;1.67;1.08;;;10.60;99.90;;;;;;5048725;28;20032;-86
2022/12/22 03:51:52;;;;;;;2.08;1.40;;;10.70;99.90;;;;;;5048457;28;20060;-86
2022/12/22 03:54:19;;;;;;;;;;;10.80;99.90;;;;;;5067343;28;20039;-86
2022/12/22 03:56:46;;;;;;;0.47;0.47;;;10.90;99.90;;;;;;5065952;28;20418;-87
2022/12/22 03:59:12;;;;;;;1.55;0.55;;;10.90;99.90;;;;;;5062022;28;20094;-86
2022/12/22 04:01:43;;;;;;;0.20;0.20;;;10.90;99.90;;;;;;5056392;28;20047;-86
2022/12/22 04:04:10;;;;;;;0.40;0.40;;;11.00;99.90;;;;;;5058963;28;20049;-86
2022/12/22 04:06:36;;;;;;;6.07;0.52;;;11.00;99.90;;;;;;5060164;28;20057;-87
2022/12/22 04:09:02;;;;;;;1.58;1.48;;;11.00;99.90;;;;;;5056196;28;20042;-87
2022/12/22 04:14:12;;;;;;;0.20;0.20;;;11.00;99.90;;;;;;5053880;28;20083;-87
2022/12/22 04:16:38;;;;;;;0.20;0.20;;;11.00;99.90;;;;;;5054971;28;20455;-86
2022/12/22 04:19:05;;;;;;;4.85;2.28;;;11.00;99.90;;;;;;5050523;28;20127;-86
2022/12/22 04:21:31;;;;;;;9.23;0.85;;;11.00;99.90;;;;;;5062995;28;20041;-86
2022/12/22 04:23:57;;;;;;;12.55;2.00;;;11.10;99.90;;;;;;5049205;28;20028;-83
2022/12/22 04:26:24;;;;;;;0.22;0.20;;;11.10;99.90;;;;;;5050228;28;20039;-84
2022/12/22 04:28:51;;;;;;;0.20;0.20;;;11.10;99.90;;;;;;5059686;28;20042;-85
2022/12/22 04:31:17;;;;;;;0.10;0.10;;;11.10;99.90;;;;;;5055843;28;20037;-84
2022/12/22 04:33:43;;;;;;;0.63;0.63;;;11.10;99.90;;;;;;5053554;28;20025;-85
2022/12/22 04:36:09;;;;;;;0.73;0.73;;;11.10;99.90;;;;;;5061768;28;20044;-86
2022/12/22 04:38:36;;;;;;;6.70;2.20;;;11.10;99.90;;;;;;5054069;28;20040;-86
2022/12/22 04:41:02;;;;;;;0.10;0.10;;;11.10;99.90;;;;;;5050455;28;20045;-90
2022/12/22 04:43:27;;;;;;;1.25;0.88;;;11.10;99.90;;;;;;5071375;28;20170;-88
2022/12/22 04:45:55;;;;;;;22.20;2.43;;;10.90;99.90;;;;;;5051660;28;20044;-87
2022/12/22 04:48:21;;;;;;;0.25;0.25;;;10.70;99.90;;;;;;5061728;28;20029;-86
2022/12/22 04:50:51;;;;;;;1.98;0.88;;;10.80;99.90;;;;;;5058380;28;20033;-85
2022/12/22 04:53:17;;;;;;;3.17;1.05;;;10.90;99.90;;;;;;5055827;28;20534;-86
2022/12/22 04:55:53;;;;;;;0.35;0.35;;;11.00;99.90;;;;;;5064680;28;20028;-85
2022/12/22 04:58:19;;;;;;;5.45;2.53;;;10.90;99.90;;;;;;5051336;28;20037;-85
2022/12/22 05:00:45;;;;;;;0.75;0.70;;;10.90;99.90;;;;;;5055730;28;20036;-84
2022/12/22 05:03:11;;;;;;;1.20;1.10;;;10.80;99.90;;;;;;5056301;28;20048;-84
2022/12/22 05:05:37;;;;;;;0.20;0.20;;;10.90;99.90;;;;;;5052479;28;20032;-84
2022/12/22 05:08:03;;;;;;;0.15;0.15;;;10.90;99.90;;;;;;5059541;28;20136;-84
2022/12/22 05:10:29;;;;;;;1.33;1.23;;;10.90;99.90;;;;;;5062291;28;20525;-85
2022/12/22 05:12:55;;;;;;;4.00;0.77;;;11.00;99.90;;;;;;5052511;28;20040;-85
2022/12/22 05:15:23;;;;;;;0.40;0.30;;;11.00;99.90;;;;;;5051234;28;20033;-85
2022/12/22 05:17:49;;;;;;;0.20;0.20;;;11.00;99.90;;;;;;5064689;28;20577;-85
2022/12/22 05:20:15;;;;;;;0.75;0.73;;;11.00;99.90;;;;;;5063160;28;20051;-85
2022/12/22 05:22:41;;;;;;;8.02;3.35;;;11.00;99.90;;;;;;5065378;28;20281;-84
2022/12/22 05:25:07;;;;;;;0.10;0.10;;;11.00;99.90;;;;;;5059395;28;20516;-86
2022/12/22 05:27:33;;;;;;;2.27;1.47;;;11.10;99.90;;;;;;5055501;28;20396;-85
2022/12/22 05:29:59;;;;;;;0.57;0.57;;;11.20;99.90;;;;;;5055376;28;20021;-84
2022/12/22 05:32:24;;;;;;;2.70;0.93;;;11.20;99.90;;;;;;5059203;28;20024;-84
2022/12/22 05:34:50;;;;;;;0.10;0.10;;;11.20;99.90;;;;;;5055732;28;20458;-85
2022/12/22 05:37:16;;;;;;;0.20;0.20;;;11.20;99.90;;;;;;5059491;28;20508;-85
2022/12/22 05:39:41;;;;;;;0.20;0.20;;;11.20;99.90;;;;;;5054937;28;20040;-85
2022/12/22 05:42:07;;;;;;;1.05;0.98;;;11.20;99.90;;;;;;5054798;28;20864;-85
2022/12/22 05:44:33;;;;;;;0.38;0.32;;;11.20;99.90;;;;;;5054285;28;20089;-86
2022/12/22 05:46:58;;;;;;;1.67;1.33;;;11.10;99.90;;;;;;5053479;28;20049;-93
2022/12/22 05:49:24;;;;;;;0.00;0.00;;;11.20;99.90;;;;;;5059633;28;20040;-85
2022/12/22 05:51:52;;;;;;;0.10;0.10;;;11.20;99.90;;;;;;5054828;28;20088;-87
2022/12/22 05:54:18;;;;;;;0.63;0.63;;;11.20;99.90;;;;;;5059966;28;20062;-83
2022/12/22 05:56:44;;;;;;;0.15;0.15;;;11.10;99.90;;;;;;5053612;28;20170;-85
2022/12/22 05:59:11;;;;;;;0.88;0.20;;;11.20;99.90;;;;;;5058390;28;20116;-85
2022/12/22 06:01:36;;;;;;;0.63;0.43;;;11.20;99.90;;;;;;5049068;28;20029;-85
2022/12/22 06:04:02;;;;;;;0.25;0.17;;;11.20;99.90;;;;;;5049884;28;20048;-84
2022/12/22 06:06:28;;;;;;;0.93;0.93;;;11.20;99.90;;;;;;5057860;28;20045;-85
2022/12/22 06:08:54;;;;;;;0.25;0.25;;;11.20;99.90;;;;;;5065292;28;20039;-85
2022/12/22 06:11:19;;;;;;;0.45;0.45;;;11.10;99.90;;;;;;5048776;28;20033;-84
2022/12/22 06:13:45;;;;;;;1.50;0.83;;;11.00;99.90;;;;;;5065974;28;20051;-84
2022/12/22 06:16:11;;;;;;;10.82;1.13;;;10.90;99.90;;;;;;5056434;28;20036;-85
2022/12/22 06:18:37;;;;;;;0.20;0.20;;;10.90;99.90;;;;;;5050915;28;20029;-84
2022/12/22 06:21:03;;;;;;;0.10;0.10;;;10.90;99.90;;;;;;5062043;28;20029;-83
2022/12/22 06:23:28;;;;;;;0.52;0.52;;;10.80;99.90;;;;;;5061327;28;20896;-85
2022/12/22 06:25:56;;;;;;;0.68;0.68;;;10.90;99.90;;;;;;5059268;28;20495;-85
2022/12/22 06:28:22;;;;;;;0.25;0.25;;;11.00;99.90;;;;;;5065870;28;20888;-85
2022/12/22 06:30:48;;;;;;;1.35;0.82;;;11.10;99.90;;;;;;5068366;28;20036;-86
2022/12/22 06:33:14;;;;;;;0.25;0.25;;;11.10;99.90;;;;;;5065654;28;20033;-85
2022/12/22 06:35:39;;;;;;;0.10;0.10;;;11.10;99.90;;;;;;5064970;28;20035;-87
2022/12/22 06:38:05;;;;;;;0.50;0.50;;;11.10;99.90;;;;;;5067240;28;20120;-85
2022/12/22 06:40:31;;;;;;;0.65;0.65;;;11.10;99.90;;;;;;5061482;28;20032;-85
2022/12/22 06:43:09;;;;;;;9.45;1.25;;;11.10;99.90;;;;;;5065613;28;20086;-88
2022/12/22 06:45:40;;;;;;;0.10;0.10;;;11.10;99.90;;;;;;5063216;28;20036;-85
2022/12/22 06:48:06;;;;;;;0.80;0.70;;;11.10;99.90;;;;;;5066300;28;20033;-89
2022/12/22 06:50:32;;;;;;;0.17;0.17;;;11.00;99.90;;;;;;5055342;28;20029;-88
2022/12/22 06:52:58;;;;;;;0.10;0.10;;;11.10;99.90;;;;;;5069864;28;20060;-89
2022/12/22 06:55:24;;;;;;;1.90;1.73;;;11.20;99.90;;;;;;5057456;28;20053;-86
2022/12/22 06:57:50;;;;;;;1.27;1.17;;;11.20;99.90;;;;;;5061403;28;20036;-86
2022/12/22 07:00:16;;;;;;;7.55;2.17;;;11.20;99.90;;;;;;5061468;28;20123;-90
2022/12/22 07:02:42;;;;;;;0.30;0.30;;;11.30;99.90;;;;;;5057992;28;20032;-87
2022/12/22 07:05:08;;;;;;;1.40;1.30;;;11.20;99.90;;;;;;5058512;28;20021;-86
2022/12/22 07:07:34;;;;;;;0.93;0.65;;;11.10;99.90;;;;;;5066931;28;20072;-86
2022/12/22 07:09:59;;;;;;;0.50;0.50;;;11.00;99.90;;;;;;5057331;28;20033;-84
2022/12/22 07:12:25;;;;;;;0.68;0.68;;;11.10;99.90;;;;;;5058386;28;20032;-88
2022/12/22 07:14:51;;;;;;;0.65;0.65;;;11.20;99.90;;;;;;5060269;28;20047;-87
2022/12/22 07:17:17;;;;;;;0.43;0.43;;;11.10;99.90;;;;;;5054747;28;20052;-88
2022/12/22 07:19:43;;;;;;;0.90;0.88;;;11.10;99.90;;;;;;5065043;28;20029;-88
2022/12/22 07:22:08;;;;;;;2.08;1.55;;;11.00;99.90;;;;;;5069367;28;20370;-89
2022/12/22 07:24:34;;;;;;;1.02;0.75;;;11.00;99.90;;;;;;5069253;28;20025;-90
2022/12/22 07:27:00;;;;;;;8.20;1.38;;;11.10;99.90;;;;;;5071567;28;20028;-87
2022/12/22 07:29:25;;;;;;;0.90;0.85;;;11.00;99.90;;;;;;5065765;28;20081;-89
2022/12/22 07:31:51;;;;;;;0.20;0.20;;;10.80;99.90;;;;;;5067122;28;20044;-88
2022/12/22 07:34:17;;;;;;;5.65;1.13;;;10.80;99.90;;;;;;5066110;28;20119;-81
2022/12/22 07:36:43;;;;;;;1.05;1.05;;;10.70;99.90;;;;;;5069395;28;20039;-85
2022/12/22 07:39:09;;;;;;;4.07;1.30;;;10.90;99.90;;;;;;5061617;28;20036;-89
2022/12/22 07:44:19;;;;;;;0.10;0.10;;;10.90;99.90;;;;;;5061373;28;20039;-85
2022/12/22 07:46:45;;;;;;;1.25;1.20;;;10.80;99.90;;;;;;5063141;28;20024;-85
2022/12/22 07:51:56;;;;;;;14.00;0.73;;;11.00;99.90;;;;;;5064067;28;20046;-86
2022/12/22 07:54:23;;;;;;;5.53;1.77;;;11.10;99.90;;;;;;5064611;28;20024;-85
2022/12/22 07:56:48;;;;;;;1.05;0.88;;;11.20;99.90;;;;;;5067866;28;20029;-87
2022/12/22 07:59:15;;;;;;;0.17;0.17;;;11.20;99.90;;;;;;5064401;28;20028;-86
2022/12/22 08:01:41;;;;;;;10.40;1.47;;;11.20;99.90;;;;;;5063858;28;20495;-86
2022/12/22 08:04:08;;;;;;;25.98;1.45;;;11.30;99.90;;;;;;5060943;28;20887;-83
2022/12/22 08:06:34;;;;;;;0.30;0.30;;;11.40;99.90;;;;;;5063201;28;20044;-82
2022/12/22 08:09:01;;;;;;;1.97;1.30;;;11.40;99.90;;;;;;5063347;28;20553;-82
2022/12/22 08:11:27;;;;;;;12.73;1.10;;;11.30;99.90;;;;;;5066025;28;20175;-81
2022/12/22 08:13:52;;;;;;;0.43;0.20;;;11.30;99.90;;;;;;5064132;28;20131;-81
2022/12/22 08:16:20;;;;;;;1.53;1.40;;;11.40;99.90;;;;;;5063359;28;20080;-82
2022/12/22 08:18:45;;;;;;;15.43;0.60;;;11.40;99.90;;;;;;5059065;28;20078;-81
2022/12/22 08:21:12;;;;;;;0.85;0.85;;;11.40;99.90;;;;;;5061647;28;20036;-81
2022/12/22 08:23:37;;;;;;;2.73;1.43;;;11.40;99.90;;;;;;5051518;28;20100;-82
2022/12/22 08:26:26;;;;;;;1.00;0.98;;;11.40;99.90;;;;;;5053590;28;21069;-81
2022/12/22 08:29:01;;;;;;;0.70;0.47;;;11.40;99.90;;;;;;5041536;28;20068;-81
2022/12/22 08:31:27;;;;;;;1.17;0.68;;;11.40;99.90;;;;;;5048952;28;20114;-81
2022/12/22 08:33:54;;;;;;;1.15;1.05;;;11.40;99.90;;;;;;5046174;28;20025;-82
2022/12/22 08:36:20;;;;;;;1.52;1.42;;;11.50;99.90;;;;;;5051124;28;20048;-82
2022/12/22 08:38:46;;;;;;;0.38;0.38;;;11.50;99.90;;;;;;5058049;28;20571;-82
2022/12/22 08:41:14;;;;;;;2.83;2.43;;;11.60;99.90;;;;;;5059993;28;20416;-81
2022/12/22 08:43:39;;;;;;;2.55;1.38;;;11.60;99.90;;;;;;5070293;28;20435;-81
2022/12/22 08:46:05;;;;;;;1.45;0.65;;;11.70;99.90;;;;;;5068162;28;20031;-82
2022/12/22 08:48:31;;;;;;;1.10;1.03;;;11.70;99.90;;;;;;5069147;28;20105;-82
2022/12/22 08:50:57;;;;;;;4.20;3.17;;;11.70;99.90;;;;;;5069356;28;20103;-82
2022/12/22 08:53:22;;;;;;;1.08;0.63;;;11.80;99.90;;;;;;5068037;28;20033;-82
2022/12/22 08:55:55;;;;;;;3.35;2.08;;;11.80;99.90;;;;;;5068136;28;20025;-82
2022/12/22 08:58:21;;;;;;;1.75;1.27;;;11.80;99.90;;;;;;5068901;28;20035;-83
2022/12/22 09:00:47;;;;;;;1.25;1.15;;;11.80;99.90;;;;;;5068807;28;20029;-83
2022/12/22 09:03:13;;;;;;;2.40;1.50;;;11.80;99.90;;;;;;5067912;28;20024;-81
2022/12/22 09:05:40;;;;;;;0.32;0.32;;;11.80;99.90;;;;;;5064923;28;20036;-83
2022/12/22 09:08:06;;;;;;;2.63;1.52;;;11.90;99.90;;;;;;5065700;28;20053;-82
2022/12/22 09:10:32;;;;;;;1.83;1.20;;;11.90;99.90;;;;;;5052720;28;20037;-82
2022/12/22 09:12:59;;;;;;;0.60;0.60;;;12.00;99.90;;;;;;5062220;28;20056;-83
2022/12/22 09:15:25;;;;;;;0.90;0.90;;;12.00;99.90;;;;;;5062064;28;20044;-81
2022/12/22 09:17:50;;;;;;;2.10;1.65;;;12.10;99.90;;;;;;5067195;28;20033;-82
2022/12/22 09:20:16;;;;;;;0.63;0.63;;;12.10;99.90;;;;;;5066627;28;20115;-82
2022/12/22 09:22:42;;;;;;;0.93;0.88;;;12.20;99.90;;;;;;5057627;28;20514;-82
2022/12/22 09:25:08;;;;;;;1.00;0.85;;;12.20;99.90;;;;;;5054990;28;20024;-82
2022/12/22 09:27:34;;;;;;;1.65;1.52;;;12.30;99.90;;;;;;5054757;28;20715;-81
2022/12/22 09:29:59;;;;;;;0.73;0.73;;;12.40;99.90;;;;;;5063340;28;20037;-82
2022/12/22 09:32:27;;;;;;;0.27;0.27;;;12.50;99.90;;;;;;5051016;28;20108;-81
2022/12/22 09:34:52;;;;;;;2.13;1.17;;;12.60;99.90;;;;;;5049565;28;20069;-82
2022/12/22 09:37:18;;;;;;;1.98;1.00;;;12.70;99.90;;;;;;5055423;28;20067;-81
2022/12/22 09:39:45;;;;;;;0.20;0.20;;;12.70;99.90;;;;;;5059859;28;20268;-81
2022/12/22 09:42:16;;;;;;;;;;;12.70;99.90;;;;;;5061787;28;20036;-81
2022/12/22 09:44:45;;;;;;;1.95;1.40;;;12.60;99.90;;;;;;5063410;28;19912;-82
2022/12/22 09:47:37;;;;;;;21.98;1.50;;;12.70;99.90;;;;;;5051218;28;20033;-82
2022/12/22 09:50:07;;;;;;;9.18;3.10;;;12.80;99.90;;;;;;5059670;28;20087;-82
2022/12/22 09:52:33;;;;;;;0.95;0.95;;;12.70;99.90;;;;;;5053152;28;20032;-82
2022/12/22 09:54:59;;;;;;;10.27;1.33;;;12.80;99.90;;;;;;5054470;28;20768;-81
2022/12/22 09:57:29;;;;;;;0.95;0.63;;;12.90;99.90;;;;;;5065292;28;20120;-82
2022/12/22 10:00:00;;;;;;;0.45;0.45;;;12.80;99.90;;;;;;5065300;28;20036;-82
2022/12/22 10:02:48;;;;;;;7.18;2.22;;;12.90;99.90;;;;;;5066123;28;20055;-82
2022/12/22 10:05:27;;;;;;;0.55;0.55;;;13.00;99.90;;;;;;5057274;28;20166;-82
2022/12/22 10:07:57;;;;;;;0.73;0.73;;;13.00;99.90;;;;;;5064934;28;20161;-81
2022/12/22 10:10:27;;;;;;;0.85;0.85;;;13.00;99.90;;;;;;5062790;28;20059;-81
2022/12/22 10:12:58;;;;;;;3.45;2.53;;;13.10;99.90;;;;;;5061173;28;20040;-82
2022/12/22 10:15:24;;;;;;;0.43;0.43;;;13.20;99.90;;;;;;5058430;28;20027;-82
2022/12/22 10:17:52;;;;;;;1.00;0.80;;;13.30;99.90;;;;;;5062419;28;20816;-82
2022/12/22 10:20:26;;;;;;;2.00;1.17;;;13.10;99.90;;;;;;5058002;28;20029;-81
2022/12/22 10:22:57;;;;;;;0.88;0.88;;;13.10;99.90;;;;;;5063454;28;20042;-82
2022/12/22 10:25:31;;;;;;;0.30;0.30;;;13.30;99.90;;;;;;5047035;28;20515;-81
2022/12/22 10:27:59;;;;;;;1.13;0.98;;;13.20;99.90;;;;;;5066194;28;20028;-82
2022/12/22 10:30:28;;;;;;;0.93;0.90;;;13.40;99.90;;;;;;5059430;28;20128;-81
2022/12/22 10:33:15;;;;;;;3.83;1.60;;;13.40;99.90;;;;;;5051086;28;20028;-81
2022/12/22 10:35:53;;;;;;;9.93;1.50;;;13.40;99.90;;;;;;5056821;28;20105;-81
2022/12/22 10:38:32;;;;;;;1.80;0.70;;;13.30;99.90;;;;;;5066561;28;20047;-81
2022/12/22 10:41:12;;;;;;;4.07;1.98;;;13.30;99.90;;;;;;5065728;28;20060;-81
2022/12/22 10:43:49;;;;;;;0.32;0.32;;;13.30;99.90;;;;;;5059785;28;20040;-87
2022/12/22 10:46:16;;;;;;;1.00;0.77;;;13.10;99.90;;;;;;5061282;28;20094;-85
2022/12/22 10:48:42;;;;;;;0.80;0.80;;;13.00;99.90;;;;;;5066152;28;20098;-87
2022/12/22 10:51:11;;;;;;;5.80;1.60;;;12.90;99.90;;;;;;5062731;28;20587;-86
2022/12/22 10:53:49;;;;;;;0.10;0.10;;;12.80;99.90;;;;;;5058963;28;20731;-85
2022/12/22 10:56:27;;;;;;;0.20;0.20;;;12.90;99.90;;;;;;5063479;28;20039;-88
2022/12/22 10:59:00;;;;;;;1.08;1.08;;;13.10;99.90;;;;;;5056254;28;20028;-85
2022/12/22 11:01:31;;;;;;;14.52;1.08;;;13.30;99.90;;;;;;5057868;28;20279;-86
2022/12/22 11:04:13;;;;;;;1.20;0.85;;;13.40;99.90;;;;;;5060974;28;20021;-88
2022/12/22 11:06:40;;;;;;;2.85;2.35;;;13.50;99.90;;;;;;5054887;28;20099;-86
2022/12/22 11:09:08;;;;;;;1.05;0.70;;;13.60;99.90;;;;;;5059406;28;20115;-85
2022/12/22 11:11:51;;;;;;;1.00;0.98;;;13.60;99.90;;;;;;5061919;28;20024;-85
2022/12/22 11:14:47;;;;;;;3.97;1.60;;;13.60;99.90;;;;;;5053865;28;20801;-83
2022/12/22 11:18:12;;;;;;;1.48;1.15;;;13.50;99.90;;;;;;5069688;28;20222;-85
2022/12/22 11:20:50;;;;;;;7.38;2.80;;;13.50;99.90;;;;;;4979904;28;20048;-83
2022/12/22 11:23:30;;;;;;;2.28;1.73;;;13.50;99.90;;;;;;4971346;28;20065;-84
2022/12/22 11:26:28;;;;;;;0.63;0.43;;;13.50;99.90;;;;;;5045393;28;20033;-84
2022/12/22 11:29:24;;;;;;;9.32;1.35;;;13.50;99.90;;;;;;5062790;28;20108;-84
2022/12/22 11:32:13;;;;;;;1.75;0.82;;;13.60;99.90;;;;;;5065677;28;20114;-86
2022/12/22 11:35:00;;;;;;;0.32;0.32;;;13.60;99.90;;;;;;5061901;28;20587;-83
2022/12/22 11:37:41;;;;;;;0.30;0.30;;;13.50;99.90;;;;;;5064094;28;20032;-84
2022/12/22 11:40:44;;;;;;;1.23;0.93;;;13.50;99.90;;;;;;5048058;28;20029;-81
2022/12/22 11:43:52;;;;;;;0.82;0.80;;;13.30;99.90;;;;;;5053415;28;20574;-81
2022/12/22 11:46:33;;;;;;;9.82;1.05;;;13.20;99.90;;;;;;5061387;28;20035;-79
2022/12/22 11:49:30;;;;;;;6.63;2.80;;;13.10;99.90;;;;;;5053030;28;20029;-79
2022/12/22 11:52:04;;;;;;;1.20;1.05;;;13.10;99.90;;;;;;5052305;28;20039;-78
2022/12/22 11:54:36;;;;;;;1.30;1.20;;;13.20;99.90;;;;;;5066082;28;20674;-79
2022/12/22 11:57:25;;;;;;;0.68;0.68;;;13.10;99.90;;;;;;5052415;28;20398;-79
2022/12/22 12:00:02;;;;;;;0.40;0.40;;;13.10;99.90;;;;;;5056626;28;20025;-79
2022/12/22 12:02:33;;;;;;;8.10;0.93;;;13.10;99.90;;;;;;5054836;28;20033;-79
2022/12/22 12:05:24;;;;;;;0.22;0.22;;;13.10;99.90;;;;;;5064387;28;20017;-79
2022/12/22 12:08:31;;;;;;;1.63;1.00;;;13.00;99.90;;;;;;5055605;28;20060;-79
2022/12/22 12:11:10;;;;;;;0.13;0.13;;;13.10;99.90;;;;;;5032049;28;20041;-79
2022/12/22 12:14:02;;;;;;;1.08;0.93;;;13.10;99.90;;;;;;5069423;28;20089;-79
2022/12/22 12:16:43;;;;;;;2.53;1.67;;;13.10;99.90;;;;;;5039558;28;20798;-79
2022/12/22 12:19:38;;;;;;;1.65;1.55;;;13.00;99.90;;;;;;5064778;28;20081;-79
2022/12/22 12:22:07;;;;;;;0.80;0.77;;;13.00;99.90;;;;;;5055447;28;20056;-79
2022/12/22 12:25:00;;;;;;;1.20;0.95;;;12.90;99.90;;;;;;5056773;28;20078;-79
2022/12/22 12:27:58;;;;;;;0.57;0.57;;;12.90;99.90;;;;;;5068631;28;20024;-80
2022/12/22 12:30:25;;;;;;;0.22;0.22;;;12.80;99.90;;;;;;5048740;28;20044;-79
2022/12/22 12:33:03;;;;;;;2.83;1.08;;;12.80;99.90;;;;;;5067212;28;20113;-80
2022/12/22 12:35:47;;;;;;;0.50;0.40;;;12.90;99.90;;;;;;5063041;28;20035;-79
2022/12/22 12:38:35;;;;;;;2.13;1.15;;;12.90;99.90;;;;;;5052411;28;20471;-79
2022/12/22 12:41:26;;;;;;;1.13;1.05;;;12.90;99.90;;;;;;5056466;28;20035;-80
2022/12/22 12:43:54;;;;;;;0.60;0.60;;;13.00;99.90;;;;;;5070152;28;20098;-80
2022/12/22 12:46:54;;;;;;;0.45;0.45;;;12.90;99.90;;;;;;5063997;28;20025;-80
2022/12/22 12:49:34;;;;;;;2.22;1.25;;;13.00;99.90;;;;;;5060110;28;20035;-80
2022/12/22 12:52:05;;;;;;;10.23;0.95;;;13.10;99.90;;;;;;5052865;28;20044;-80
2022/12/22 12:54:39;;;;;;;0.10;0.10;;;13.10;99.90;;;;;;5055604;28;20032;-80
2022/12/22 12:57:43;;;;;;;1.58;1.08;;;13.00;99.90;;;;;;5054012;28;20138;-80
2022/12/22 13:00:31;;;;;;;0.50;0.50;;;12.90;99.90;;;;;;5055641;28;20180;-80
2022/12/22 13:03:02;;;;;;;0.85;0.82;;;12.90;99.90;;;;;;5051015;28;20033;-80
2022/12/22 13:05:49;;;;;;;0.80;0.77;;;12.90;99.90;;;;;;5051029;28;20064;-80
2022/12/22 13:08:21;;;;;;;1.60;0.80;;;12.80;99.90;;;;;;5059101;28;20051;-80
2022/12/22 13:10:54;;;;;;;0.45;0.32;;;12.90;99.90;;;;;;5053419;28;20078;-80
2022/12/22 13:13:22;;;;;;;1.77;1.38;;;12.90;99.90;;;;;;5069889;28;20818;-80
2022/12/22 13:16:03;;;;;;;1.08;1.05;;;12.90;99.90;;;;;;5058671;28;20025;-80
2022/12/22 13:18:41;;;;;;;0.40;0.40;;;13.00;99.90;;;;;;5059935;28;20078;-80
2022/12/22 13:21:15;;;;;;;1.08;0.98;;;13.00;99.90;;;;;;5063821;28;20067;-80
2022/12/22 13:23:45;;;;;;;0.25;0.25;;;12.90;99.90;;;;;;5061966;28;20040;-81
2022/12/22 13:26:32;;;;;;;0.30;0.30;;;12.80;99.90;;;;;;5051390;28;20025;-80
2022/12/22 13:29:01;;;;;;;0.47;0.40;;;12.80;99.90;;;;;;5053374;28;20056;-81
2022/12/22 13:31:35;;;;;;;7.78;0.88;;;12.80;99.90;;;;;;5062170;28;20039;-80
2022/12/22 13:34:19;;;;;;;2.72;1.60;;;12.90;99.90;;;;;;5054923;28;20493;-80
2022/12/22 13:36:47;;;;;;;3.97;1.40;;;12.90;99.90;;;;;;5054108;28;20017;-80
2022/12/22 13:39:14;;;;;;;1.02;0.57;;;12.90;99.90;;;;;;5061844;28;20164;-81
2022/12/22 13:41:45;;;;;;;2.17;0.73;;;12.80;99.90;;;;;;5062085;28;20097;-81
2022/12/22 13:44:17;;;;;;;1.30;1.20;;;12.80;99.90;;;;;;5057538;28;20109;-81
2022/12/22 13:46:43;;;;;;;5.55;3.00;;;12.70;99.90;;;;;;5061729;28;20025;-81
2022/12/22 13:49:15;;;;;;;0.77;0.73;;;12.70;99.90;;;;;;5055817;28;20025;-82
2022/12/22 13:51:41;;;;;;;0.90;0.88;;;12.60;99.90;;;;;;5055940;28;20033;-81
2022/12/22 13:54:30;;;;;;;0.65;0.65;;;12.60;99.90;;;;;;5050075;28;20025;-80
2022/12/22 13:56:57;;;;;;;0.43;0.35;;;12.60;99.90;;;;;;5054933;28;20033;-81
2022/12/22 13:59:41;;;;;;;0.32;0.32;;;12.60;99.90;;;;;;5058397;28;20035;-81
2022/12/22 14:02:13;;;;;;;0.30;0.30;;;12.70;99.90;;;;;;5059608;28;20442;-81
2022/12/22 14:04:43;;;;;;;1.10;1.00;;;12.60;99.90;;;;;;5053690;28;20020;-80
2022/12/22 14:07:19;;;;;;;16.63;2.33;;;12.60;99.90;;;;;;5057625;28;20786;-81
2022/12/22 14:09:47;;;;;;;0.20;0.20;;;12.60;99.90;;;;;;5057724;28;20227;-80
2022/12/22 14:12:17;;;;;;;0.15;0.10;;;12.70;99.90;;;;;;5057170;28;20500;-80
2022/12/22 14:14:47;;;;;;;0.10;0.10;;;12.70;99.90;;;;;;5050355;28;20086;-80
2022/12/22 14:17:22;;;;;;;1.50;0.88;;;12.70;99.90;;;;;;5051623;28;20503;-80
2022/12/22 14:19:50;;;;;;;1.98;0.80;;;12.70;99.90;;;;;;5059506;28;20025;-80
2022/12/22 14:22:21;;;;;;;0.43;0.43;;;12.70;99.90;;;;;;5053692;28;20035;-80
2022/12/22 14:24:54;;;;;;;1.65;1.30;;;12.70;99.90;;;;;;5049794;28;20028;-80
2022/12/22 14:27:34;;;;;;;0.98;0.40;;;12.70;99.90;;;;;;5051876;28;20025;-80
2022/12/22 14:30:02;;;;;;;0.10;0.10;;;12.70;99.90;;;;;;5049889;28;20049;-80
2022/12/22 14:32:53;;;;;;;0.40;0.40;;;12.70;99.90;;;;;;5048013;28;20121;-80
2022/12/22 14:35:19;;;;;;;3.40;2.03;;;12.70;99.90;;;;;;5048369;28;20041;-80
2022/12/22 14:37:46;;;;;;;1.27;1.13;;;12.80;99.90;;;;;;5054453;28;20124;-80
2022/12/22 14:40:30;;;;;;;0.50;0.50;;;12.80;99.90;;;;;;5055807;28;20095;-80
2022/12/22 14:42:57;;;;;;;0.43;0.43;;;12.70;99.90;;;;;;5057492;28;20062;-80
2022/12/22 14:45:23;;;;;;;5.47;0.90;;;12.60;99.90;;;;;;5063898;28;20020;-80
2022/12/22 14:47:49;;;;;;;1.40;1.20;;;12.60;99.90;;;;;;5051006;28;20032;-80
2022/12/22 14:50:27;;;;;;;0.30;0.30;;;12.50;99.90;;;;;;5065820;28;20518;-80
2022/12/22 14:52:57;;;;;;;0.03;0.03;;;12.60;99.90;;;;;;5050856;28;20504;-80
2022/12/22 14:55:28;;;;;;;0.55;0.47;;;12.60;99.90;;;;;;5048523;28;20059;-80
2022/12/22 14:58:03;;;;;;;0.60;0.60;;;12.70;99.90;;;;;;5058595;28;20047;-80
2022/12/22 15:00:35;;;;;;;2.30;1.02;;;12.70;99.90;;;;;;5053217;28;20530;-81
2022/12/22 15:03:25;;;;;;;0.10;0.10;;;12.70;99.90;;;;;;5055078;28;20028;-81
2022/12/22 15:05:51;;;;;;;0.35;0.30;;;12.60;99.90;;;;;;5058067;28;20645;-80
2022/12/22 15:08:43;;;;;;;0.28;0.28;;;12.60;99.90;;;;;;5066000;28;20049;-80
2022/12/22 15:11:11;;;;;;;0.30;0.30;;;12.60;99.90;;;;;;5053492;28;20040;-80
2022/12/22 15:13:37;;;;;;;0.10;0.10;;;12.60;99.90;;;;;;5046318;28;20056;-81
2022/12/22 15:16:03;;;;;;;3.93;1.50;;;12.50;99.90;;;;;;5053947;28;20141;-81
2022/12/22 15:18:28;;;;;;;0.57;0.57;;;12.50;99.90;;;;;;5054352;28;20033;-81
2022/12/22 15:20:56;;;;;;;0.33;0.33;;;12.40;99.90;;;;;;5047513;28;20904;-81
2022/12/22 15:23:22;;;;;;;0.45;0.45;;;12.40;99.90;;;;;;5056278;28;20033;-81
2022/12/22 15:25:48;;;;;;;4.77;0.30;;;12.50;99.90;;;;;;5052289;28;20032;-81
2022/12/22 15:28:14;;;;;;;0.10;0.10;;;12.40;99.90;;;;;;5055488;28;20024;-81
2022/12/22 15:30:40;;;;;;;0.17;0.17;;;12.40;99.90;;;;;;5061234;28;20605;-81
2022/12/22 15:33:17;;;;;;;0.30;0.30;;;12.40;99.90;;;;;;5061866;28;20021;-81
2022/12/22 15:35:43;;;;;;;0.35;0.35;;;12.30;99.90;;;;;;5059890;28;20052;-81
2022/12/22 15:38:15;;;;;;;0.70;0.70;;;12.30;99.90;;;;;;5053847;28;20036;-81
2022/12/22 15:40:41;;;;;;;0.75;0.75;;;12.30;99.90;;;;;;5066062;28;20567;-81
2022/12/22 15:43:07;;;;;;;0.30;0.30;;;12.30;99.90;;;;;;5055092;28;20040;-82
2022/12/22 15:45:35;;;;;;;0.30;0.30;;;12.20;99.90;;;;;;5067294;28;20021;-81
2022/12/22 15:48:02;;;;;;;0.20;0.20;;;12.20;99.90;;;;;;5062950;28;20084;-82
2022/12/22 15:50:32;;;;;;;0.73;0.47;;;12.20;99.90;;;;;;5053422;28;20078;-82
2022/12/22 15:52:59;;;;;;;1.45;0.55;;;12.20;99.90;;;;;;5059519;28;20028;-81
2022/12/22 15:55:25;;;;;;;0.30;0.30;;;12.20;99.90;;;;;;5055221;28;20021;-82
2022/12/22 15:57:56;;;;;;;0.13;0.13;;;12.20;99.90;;;;;;5058156;28;20035;-82
2022/12/22 16:00:22;;;;;;;0.28;0.28;;;12.20;99.90;;;;;;5058482;28;20032;-82
2022/12/22 16:02:48;;;;;;;0.10;0.10;;;12.20;99.90;;;;;;5055558;28;20040;-82
2022/12/22 16:05:15;;;;;;;0.10;0.10;;;12.10;99.90;;;;;;5053754;28;20771;-82
2022/12/22 16:07:42;;;;;;;0.32;0.32;;;12.10;99.90;;;;;;5053383;28;20053;-81
2022/12/22 16:10:22;;;;;;;0.80;0.80;;;12.10;99.90;;;;;;5057068;28;20025;-82
2022/12/22 16:12:52;;;;;;;0.20;0.20;;;12.00;99.90;;;;;;5052539;28;20524;-81
2022/12/22 16:15:19;;;;;;;0.32;0.32;;;12.00;99.90;;;;;;5058096;28;20111;-82
2022/12/22 16:17:45;;;;;;;0.30;0.30;;;11.90;99.90;;;;;;5054666;28;20036;-82
2022/12/22 16:20:11;;;;;;;0.10;0.10;;;11.90;99.90;;;;;;5056954;28;20037;-83
2022/12/22 16:22:38;;;;;;;0.67;0.63;;;11.90;99.90;;;;;;5053795;28;20040;-81
2022/12/22 16:25:12;;;;;;;0.43;0.30;;;11.90;99.90;;;;;;5053459;28;20094;-82
2022/12/22 16:27:37;;;;;;;0.20;0.20;;;11.90;99.90;;;;;;5045761;28;20083;-82
2022/12/22 16:30:03;;;;;;;0.28;0.28;;;11.90;99.90;;;;;;5051981;28;20033;-82
2022/12/22 16:32:31;;;;;;;0.15;0.15;;;11.90;99.90;;;;;;5048984;28;20104;-82
2022/12/22 16:35:08;;;;;;;0.50;0.50;;;11.90;99.90;;;;;;5047386;28;20033;-82
2022/12/22 16:37:34;;;;;;;0.20;0.20;;;11.90;99.90;;;;;;5047229;28;20025;-81
2022/12/22 16:40:00;;;;;;;0.22;0.22;;;11.80;99.90;;;;;;5048578;28;20035;-82
2022/12/22 16:42:26;;;;;;;0.30;0.30;;;11.80;99.90;;;;;;5048003;28;20083;-81
2022/12/22 16:44:52;;;;;;;0.20;0.20;;;11.70;99.90;;;;;;5063909;28;20029;-82
2022/12/22 16:47:31;;;;;;;0.10;0.10;;;11.70;99.90;;;;;;5053184;28;20143;-81